Time;durP1;ratioP1;P1;durP2;ratioP2;P2;SDS_P1;SDS_P2;PMS_P1;PMS_P2;Temp;Humidity;BMP_temperature;BMP_pressure;BME280_temperature;BME280_humidity;BME280_pressure;Samples;Min_cycle;Max_cycle;Signal;HPM_P1;HPM_P2
2023/09/15 00:01:19;;;;;;;;;;;;;;;;;;;;;
2023/09/15 00:03:46;;;;;;;;;;;;;;;;;;6250505;22;19923;-83
2023/09/15 00:06:22;;;;;;;;;;;;;;;;;;6267996;22;20271;-83
2023/09/15 00:09:03;;;;;;;;;;;;;;;;;;;;;
2023/09/15 00:12:00;;;;;;;;;;;;;;;;;;6178245;23;19982;-83
2023/09/15 00:14:34;;;;;;;;;;;;;;;;;;6143572;23;20337;-83
2023/09/15 00:17:05;;;;;;;;;;;;;;;;;;6116914;23;19962;-83
2023/09/15 00:19:32;;;;;;;;;;;;;;;;;;6112396;23;19925;-83
2023/09/15 00:22:00;;;;;;;;;;;;;;;;;;6114386;23;19935;-83
2023/09/15 00:24:46;;;;;;;;;;;;;;;;;;6138246;23;19920;-83
2023/09/15 00:27:13;;;;;;;;;;;;;;;;;;6113587;23;19940;-83
2023/09/15 00:29:40;;;;;;;;;;;;;;;;;;6111938;23;19999;-83
2023/09/15 00:32:28;;;;;;;;;;;;;;;;;;6115122;23;19924;-83
2023/09/15 00:34:55;;;;;;;;;;;;;;;;;;6139372;23;19916;-83
2023/09/15 00:43:18;;;;;;;;;;;;;;;;;;6095543;23;19990;-82
2023/09/15 00:48:55;;;;;;;;;;;;;;;;;;6234838;22;19919;-83
2023/09/15 00:51:22;;;;;;;;;;;;;;;;;;6235917;22;19925;-82
2023/09/15 00:56:34;;;;;;;;;;;;;;;;;;6324098;22;19997;-82
2023/09/15 00:59:10;;;;;;;;;;;;;;;;;;6274400;22;20338;-82
2023/09/15 01:01:39;;;;;;;;;;;;;;;;;;6294812;22;20023;-82
2023/09/15 01:04:07;;;;;;;;;;;;;;;;;;6298419;22;19963;-82
2023/09/15 01:06:34;;;;;;;;;;;;;;;;;;6300940;22;19927;-82
2023/09/15 01:11:37;;;;;;;;;;;;;;;;;;6312113;22;19928;-86
2023/09/15 01:14:05;;;;;;;;;;;;;;;;;;6272283;22;19926;-86
2023/09/15 01:16:32;;;;;;;;;;;;;;;;;;6272741;22;19955;-86
2023/09/15 01:19:02;;;;;;;;;;;;;;;;;;6300341;22;19926;-86
2023/09/15 01:21:32;;;;;;;;;;;;;;;;;;6270030;22;19931;-86
2023/09/15 01:24:07;;;;;;;;;;;;;;;;;;6274870;22;19949;-86
2023/09/15 01:26:34;;;;;;;;;;;;;;;;;;6274913;22;19918;-86
2023/09/15 01:29:14;;;;;;;;;;;;;;;;;;;;;
2023/09/15 01:31:41;;;;;;;;;;;;;;;;;;6297077;22;19923;-86
2023/09/15 01:34:09;;;;;;;;;;;;;;;;;;6300096;22;20313;-86
2023/09/15 01:36:36;;;;;;;;;;;;;;;;;;6296105;22;19919;-86
2023/09/15 01:39:09;;;;;;;;;;;;;;;;;;6299546;22;19929;-87
2023/09/15 01:41:37;;;;;;;;;;;;;;;;;;6262326;22;20009;-86
2023/09/15 01:44:04;;;;;;;;;;;;;;;;;;6207360;22;20428;-86
2023/09/15 01:49:38;;;;;;;;;;;;;;;;;;6168806;22;19964;-86
2023/09/15 01:52:05;;;;;;;;;;;;;;;;;;6206287;22;19923;-86
2023/09/15 01:54:32;;;;;;;;;;;;;;;;;;6259108;22;19930;-86
2023/09/15 01:57:00;;;;;;;;;;;;;;;;;;6262082;22;20251;-86
2023/09/15 01:59:27;;;;;;;;;;;;;;;;;;6258684;22;20235;-87
2023/09/15 02:01:55;;;;;;;;;;;;;;;;;;6261315;22;19926;-87
2023/09/15 02:04:22;;;;;;;;;;;;;;;;;;6207093;22;20017;-86
2023/09/15 02:06:49;;;;;;;;;;;;;;;;;;6256385;22;19919;-86
2023/09/15 02:09:16;;;;;;;;;;;;;;;;;;6256678;22;20462;-86
2023/09/15 02:11:53;;;;;;;;;;;;;;;;;;6206778;22;19930;-86
2023/09/15 02:17:20;;;;;;;;;;;;;;;;;;6240553;22;20669;-86
2023/09/15 02:19:47;;;;;;;;;;;;;;;;;;6282354;22;20306;-86
2023/09/15 02:22:14;;;;;;;;;;;;;;;;;;6297328;22;19918;-87
2023/09/15 02:24:42;;;;;;;;;;;;;;;;;;6296737;22;20722;-87
2023/09/15 02:27:09;;;;;;;;;;;;;;;;;;6297312;22;20014;-87
2023/09/15 02:29:37;;;;;;;;;;;;;;;;;;6294976;22;19925;-83
2023/09/15 02:32:04;;;;;;;;;;;;;;;;;;6295571;22;20338;-83
2023/09/15 02:34:40;;;;;;;;;;;;;;;;;;6297042;22;19934;-83
2023/09/15 02:37:07;;;;;;;;;;;;;;;;;;6299261;22;19926;-83
2023/09/15 02:39:37;;;;;;;;;;;;;;;;;;6295972;22;19922;-83
2023/09/15 02:42:17;;;;;;;;;;;;;;;;;;6301997;22;20421;-83
2023/09/15 02:44:50;;;;;;;;;;;;;;;;;;6294879;22;19918;-83
2023/09/15 02:47:21;;;;;;;;;;;;;;;;;;6232643;22;19922;-83
2023/09/15 02:49:57;;;;;;;;;;;;;;;;;;6269756;22;19989;-83
2023/09/15 02:52:24;;;;;;;;;;;;;;;;;;6295197;22;19918;-83
2023/09/15 02:54:51;;;;;;;;;;;;;;;;;;6299958;22;19923;-83
2023/09/15 02:57:18;;;;;;;;;;;;;;;;;;6298974;22;19929;-83
2023/09/15 02:59:46;;;;;;;;;;;;;;;;;;6299993;22;19929;-83
2023/09/15 03:02:13;;;;;;;;;;;;;;;;;;6298113;22;20398;-83
2023/09/15 03:07:52;;;;;;;;;;;;;;;;;;6173861;23;19924;-83
2023/09/15 03:10:19;;;;;;;;;;;;;;;;;;6261014;22;19921;-83
2023/09/15 03:12:47;;;;;;;;;;;;;;;;;;6312450;22;19985;-83
2023/09/15 03:15:15;;;;;;;;;;;;;;;;;;6325490;22;19924;-83
2023/09/15 03:17:46;;;;;;;;;;;;;;;;;;6322152;22;19918;-82
2023/09/15 03:20:19;;;;;;;;;;;;;;;;;;6303773;22;19923;-83
2023/09/15 03:22:46;;;;;;;;;;;;;;;;;;6266309;22;20281;-83
2023/09/15 03:25:17;;;;;;;;;;;;;;;;;;6239908;22;19919;-83
2023/09/15 03:27:54;;;;;;;;;;;;;;;;;;6239887;22;19919;-83
2023/09/15 03:30:21;;;;;;;;;;;;;;;;;;6267075;22;19984;-83
2023/09/15 03:32:48;;;;;;;;;;;;;;;;;;6267987;22;19919;-83
2023/09/15 03:35:18;;;;;;;;;;;;;;;;;;6266203;22;19981;-83
2023/09/15 03:37:46;;;;;;;;;;;;;;;;;;6242056;22;19919;-83
2023/09/15 03:40:13;;;;;;;;;;;;;;;;;;6268261;22;19923;-83
2023/09/15 03:42:40;;;;;;;;;;;;;;;;;;6266423;22;19919;-83
2023/09/15 03:45:08;;;;;;;;;;;;;;;;;;6270156;22;19922;-83
2023/09/15 03:47:35;;;;;;;;;;;;;;;;;;6267487;22;19942;-83
2023/09/15 03:50:03;;;;;;;;;;;;;;;;;;6267998;22;19919;-83
2023/09/15 03:52:30;;;;;;;;;;;;;;;;;;6265303;22;20037;-83
2023/09/15 03:55:00;;;;;;;;;;;;;;;;;;6267997;22;20039;-83
2023/09/15 04:00:43;;;;;;;;;;;;;;;;;;6180795;23;20002;-83
2023/09/15 04:03:11;;;;;;;;;;;;;;;;;;6152283;23;19920;-83
2023/09/15 04:05:38;;;;;;;;;;;;;;;;;;6175444;23;20817;-83
2023/09/15 04:08:05;;;;;;;;;;;;;;;;;;6173948;23;19920;-83
2023/09/15 04:10:33;;;;;;;;;;;;;;;;;;6171351;23;19920;-83
2023/09/15 04:13:00;;;;;;;;;;;;;;;;;;6148659;23;20332;-83
2023/09/15 04:15:27;;;;;;;;;;;;;;;;;;6172352;23;20510;-83
2023/09/15 04:17:55;;;;;;;;;;;;;;;;;;6150793;23;19962;-83
2023/09/15 04:26:45;;;;;;;;;;;;;;;;;;;;;
2023/09/15 04:29:18;;;;;;;;;;;;;;;;;;6118884;23;19917;-83
2023/09/15 04:31:51;;;;;;;;;;;;;;;;;;6118926;23;20003;-83
2023/09/15 04:34:25;;;;;;;;;;;;;;;;;;6143370;23;19920;-83
2023/09/15 04:36:54;;;;;;;;;;;;;;;;;;6141440;23;20346;-83
2023/09/15 04:39:27;;;;;;;;;;;;;;;;;;6124291;23;20039;-83
2023/09/15 04:41:54;;;;;;;;;;;;;;;;;;6175434;23;20435;-83
2023/09/15 04:44:25;;;;;;;;;;;;;;;;;;6146711;23;19924;-83
2023/09/15 04:46:52;;;;;;;;;;;;;;;;;;6176062;23;19957;-84
2023/09/15 04:52:16;;;;;;;;;;;;;;;;;;6250266;22;19918;-83
2023/09/15 04:54:43;;;;;;;;;;;;;;;;;;6267864;22;19922;-83
2023/09/15 04:57:11;;;;;;;;;;;;;;;;;;6241623;22;19919;-83
2023/09/15 04:59:38;;;;;;;;;;;;;;;;;;6241710;22;19922;-83
2023/09/15 05:02:22;;;;;;;;;;;;;;;;;;6268920;22;19926;-83
2023/09/15 05:04:59;;;;;;;;;;;;;;;;;;6266941;22;19976;-83
2023/09/15 05:07:27;;;;;;;;;;;;;;;;;;6239202;22;19945;-82
2023/09/15 05:09:54;;;;;;;;;;;;;;;;;;6295760;22;20019;-83
2023/09/15 05:12:24;;;;;;;;;;;;;;;;;;6266347;22;19923;-83
2023/09/15 05:15:13;;;;;;;;;;;;;;;;;;6241335;22;19985;-83
2023/09/15 05:17:57;;;;;;;;;;;;;;;;;;6268557;22;19915;-83
2023/09/15 05:20:25;;;;;;;;;;;;;;;;;;6293869;22;20403;-83
2023/09/15 05:28:50;;;;;;;;;;;;;;;;;;6290621;22;19994;-83
2023/09/15 05:31:25;;;;;;;;;;;;;;;;;;6239703;22;20247;-83
2023/09/15 05:33:53;;;;;;;;;;;;;;;;;;6262917;22;19919;-83
2023/09/15 05:36:20;;;;;;;;;;;;;;;;;;6293509;22;19919;-83
2023/09/15 05:38:48;;;;;;;;;;;;;;;;;;6241933;22;20297;-83
2023/09/15 05:41:15;;;;;;;;;;;;;;;;;;6270054;22;19926;-83
2023/09/15 05:43:42;;;;;;;;;;;;;;;;;;6267369;22;19922;-83
2023/09/15 05:46:09;;;;;;;;;;;;;;;;;;6241680;22;19938;-83
2023/09/15 05:49:19;;;;;;;;;;;;;;;;;;6266144;22;19919;-83
2023/09/15 05:51:57;;;;;;;;;;;;;;;;;;6263786;22;19977;-83
2023/09/15 05:54:25;;;;;;;;;;;;;;;;;;6238297;22;19919;-83
2023/09/15 05:56:52;;;;;;;;;;;;;;;;;;6244007;22;19923;-83
2023/09/15 05:59:19;;;;;;;;;;;;;;;;;;6267133;22;19929;-83
2023/09/15 06:01:47;;;;;;;;;;;;;;;;;;6240322;22;19926;-83
2023/09/15 06:04:48;;;;;;;;;;;;;;;;;;;;;
2023/09/15 06:07:20;;;;;;;;;;;;;;;;;;6264017;22;19922;-82
2023/09/15 06:09:47;;;;;;;;;;;;;;;;;;6268074;22;20010;-83
2023/09/15 06:12:15;;;;;;;;;;;;;;;;;;6240166;22;20338;-83
2023/09/15 06:14:42;;;;;;;;;;;;;;;;;;6238913;22;20207;-83
2023/09/15 06:20:33;;;;;;;;;;;;;;;;;;6260497;22;19922;-83
2023/09/15 06:23:21;;;;;;;;;;;;;;;;;;6271017;22;19941;-83
2023/09/15 06:25:48;;;;;;;;;;;;;;;;;;6244816;22;19926;-83
2023/09/15 06:31:18;;;;;;;;;;;;;;;;;;6248222;22;19984;-82
2023/09/15 06:33:46;;;;;;;;;;;;;;;;;;6242725;22;19918;-84
2023/09/15 06:36:28;;;;;;;;;;;;;;;;;;6240692;22;19926;-86
2023/09/15 06:39:10;;;;;;;;;;;;;;;;;;6265681;22;19923;-84
2023/09/15 06:41:36;;;;;;;;;;;;;;;;;;6238940;22;20851;-83
2023/09/15 06:44:05;;;;;;;;;;;;;;;;;;6267848;22;19984;-83
2023/09/15 06:46:35;;;;;;;;;;;;;;;;;;6264540;22;19919;-83
2023/09/15 06:49:06;;;;;;;;;;;;;;;;;;6241362;22;19965;-84
2023/09/15 06:51:33;;;;;;;;;;;;;;;;;;6237724;22;19925;-83
2023/09/15 06:54:00;;;;;;;;;;;;;;;;;;6265192;22;19930;-83
2023/09/15 06:56:27;;;;;;;;;;;;;;;;;;6267365;22;20243;-83
2023/09/15 06:58:54;;;;;;;;;;;;;;;;;;6266267;22;19923;-83
2023/09/15 07:01:21;;;;;;;;;;;;;;;;;;6235058;22;19987;-84
2023/09/15 07:03:48;;;;;;;;;;;;;;;;;;6292044;22;20376;-83
2023/09/15 07:06:25;;;;;;;;;;;;;;;;;;;;;
2023/09/15 07:08:53;;;;;;;;;;;;;;;;;;6267034;22;19919;-83
2023/09/15 07:11:26;;;;;;;;;;;;;;;;;;6268686;22;19919;-84
2023/09/15 07:13:53;;;;;;;;;;;;;;;;;;6240784;22;19919;-84
2023/09/15 07:16:21;;;;;;;;;;;;;;;;;;6264654;22;20299;-83
2023/09/15 07:18:48;;;;;;;;;;;;;;;;;;6245325;22;19919;-83
2023/09/15 07:21:15;;;;;;;;;;;;;;;;;;6241826;22;19930;-84
2023/09/15 07:23:43;;;;;;;;;;;;;;;;;;6240469;22;19926;-84
2023/09/15 07:26:11;;;;;;;;;;;;;;;;;;6242231;22;19919;-84
2023/09/15 07:28:38;;;;;;;;;;;;;;;;;;6266830;22;20134;-84
2023/09/15 07:31:05;;;;;;;;;;;;;;;;;;6242678;22;19983;-84
2023/09/15 07:33:32;;;;;;;;;;;;;;;;;;6291801;22;20078;-84
2023/09/15 07:35:59;;;;;;;;;;;;;;;;;;6267712;22;20030;-83
2023/09/15 07:38:37;;;;;;;;;;;;;;;;;;;;;
2023/09/15 07:43:43;;;;;;;;;;;;;;;;;;6307561;22;19918;-83
2023/09/15 07:46:34;;;;;;;;;;;;;;;;;;6274859;22;19929;-83
2023/09/15 07:51:50;;;;;;;;;;;;;;;;;;6301770;22;19923;-83
2023/09/15 07:54:19;;;;;;;;;;;;;;;;;;6296470;22;19979;-83
2023/09/15 07:56:46;;;;;;;;;;;;;;;;;;6298510;22;19925;-83
2023/09/15 07:59:14;;;;;;;;;;;;;;;;;;6271342;22;19922;-83
2023/09/15 08:01:42;;;;;;;;;;;;;;;;;;6296399;22;20381;-83
2023/09/15 08:04:09;;;;;;;;;;;;;;;;;;6299149;22;19926;-83
2023/09/15 08:06:39;;;;;;;;;;;;;;;;;;6319803;22;20895;-83
2023/09/15 08:09:06;;;;;;;;;;;;;;;;;;6300475;22;19940;-83
2023/09/15 08:11:37;;;;;;;;;;;;;;;;;;6267966;22;20663;-83
2023/09/15 08:14:05;;;;;;;;;;;;;;;;;;6300718;22;19919;-83
2023/09/15 08:16:32;;;;;;;;;;;;;;;;;;6297782;22;20044;-83
2023/09/15 08:22:13;;;;;;;;;;;;;;;;;;6309726;22;19918;-83
2023/09/15 08:24:40;;;;;;;;;;;;;;;;;;6297248;22;20231;-83
2023/09/15 08:27:08;;;;;;;;;;;;;;;;;;6269742;22;19954;-83
2023/09/15 08:32:42;;;;;;;;;;;;;;;;;;6279692;22;20355;-83
2023/09/15 08:38:47;;;;;;;;;;;;;;;;;;6142635;23;20376;-84
2023/09/15 08:41:13;;;;;;;;;;;;;;;;;;6174233;23;19982;-83
2023/09/15 08:43:44;;;;;;;;;;;;;;;;;;6179768;23;19926;-83
2023/09/15 08:46:11;;;;;;;;;;;;;;;;;;6237891;22;19930;-83
2023/09/15 08:48:38;;;;;;;;;;;;;;;;;;6281042;22;19957;-83
2023/09/15 08:51:17;;;;;;;;;;;;;;;;;;6266049;22;20760;-83
2023/09/15 08:54:04;;;;;;;;;;;;;;;;;;6285904;22;19961;-83
2023/09/15 08:56:31;;;;;;;;;;;;;;;;;;6290684;22;19986;-83
2023/09/15 08:59:06;;;;;;;;;;;;;;;;;;6269031;22;19919;-83
2023/09/15 09:01:42;;;;;;;;;;;;;;;;;;6263743;22;19938;-83
2023/09/15 09:04:19;;;;;;;;;;;;;;;;;;6293339;22;20357;-84
2023/09/15 09:07:21;;;;;;;;;;;;;;;;;;;;;
2023/09/15 09:16:02;;;;;;;;;;;;;;;;;;6273638;22;20377;-83
2023/09/15 09:18:29;;;;;;;;;;;;;;;;;;6210408;22;20329;-84
2023/09/15 09:26:48;;;;;;;;;;;;;;;;;;6228816;22;19919;-84
2023/09/15 09:29:16;;;;;;;;;;;;;;;;;;6211234;22;19919;-84
2023/09/15 09:34:55;;;;;;;;;;;;;;;;;;6183203;22;20281;-84
2023/09/15 09:37:26;;;;;;;;;;;;;;;;;;6227961;22;19966;-84
2023/09/15 09:39:53;;;;;;;;;;;;;;;;;;6209605;22;19927;-84
2023/09/15 09:42:24;;;;;;;;;;;;;;;;;;6205143;22;19923;-84
2023/09/15 09:44:52;;;;;;;;;;;;;;;;;;6233412;22;19919;-84
2023/09/15 09:47:22;;;;;;;;;;;;;;;;;;6239683;22;19990;-85
2023/09/15 09:49:50;;;;;;;;;;;;;;;;;;6294263;22;19918;-84
2023/09/15 09:52:17;;;;;;;;;;;;;;;;;;6267343;22;19918;-84
2023/09/15 09:54:47;;;;;;;;;;;;;;;;;;6270812;22;19934;-84
2023/09/15 09:57:15;;;;;;;;;;;;;;;;;;6294169;22;19919;-85
2023/09/15 09:59:57;;;;;;;;;;;;;;;;;;6270114;22;20001;-84
2023/09/15 10:02:24;;;;;;;;;;;;;;;;;;6288966;22;19923;-84
2023/09/15 10:04:53;;;;;;;;;;;;;;;;;;6267275;22;20613;-84
2023/09/15 10:07:20;;;;;;;;;;;;;;;;;;6289645;22;19924;-84
2023/09/15 10:09:49;;;;;;;;;;;;;;;;;;6303653;22;20239;-83
2023/09/15 10:12:16;;;;;;;;;;;;;;;;;;6293953;22;19991;-83
2023/09/15 10:14:43;;;;;;;;;;;;;;;;;;6229863;22;19919;-83
2023/09/15 10:17:13;;;;;;;;;;;;;;;;;;6205711;23;19966;-83
2023/09/15 10:19:42;;;;;;;;;;;;;;;;;;6202695;22;19973;-84
2023/09/15 10:22:13;;;;;;;;;;;;;;;;;;6206588;22;19927;-83
2023/09/15 10:24:40;;;;;;;;;;;;;;;;;;6203052;23;19920;-83
2023/09/15 10:27:07;;;;;;;;;;;;;;;;;;6206506;23;19986;-84
2023/09/15 10:29:34;;;;;;;;;;;;;;;;;;6200935;22;19995;-84
2023/09/15 10:32:01;;;;;;;;;;;;;;;;;;6227788;23;19919;-83
2023/09/15 10:34:29;;;;;;;;;;;;;;;;;;6200714;23;20028;-83
2023/09/15 10:40:25;;;;;;;;;;;;;;;;;;6116382;23;20497;-85
2023/09/15 10:42:54;;;;;;;;;;;;;;;;;;6175109;23;19927;-84
2023/09/15 10:45:20;;;;;;;;;;;;;;;;;;6209160;22;20431;-84
2023/09/15 10:47:47;;;;;;;;;;;;;;;;;;6234798;22;20378;-85
2023/09/15 10:50:15;;;;;;;;;;;;;;;;;;6234845;22;19951;-84
2023/09/15 10:52:42;;;;;;;;;;;;;;;;;;6231623;22;19920;-85
2023/09/15 10:55:09;;;;;;;;;;;;;;;;;;6235027;22;20229;-84
2023/09/15 10:57:36;;;;;;;;;;;;;;;;;;6233839;22;19919;-85
2023/09/15 11:00:06;;;;;;;;;;;;;;;;;;6236391;22;20366;-84
2023/09/15 11:02:39;;;;;;;;;;;;;;;;;;6234615;22;19946;-85
2023/09/15 11:05:06;;;;;;;;;;;;;;;;;;6236693;22;19926;-85
2023/09/15 11:07:33;;;;;;;;;;;;;;;;;;6233156;22;19988;-85
2023/09/15 11:09:59;;;;;;;;;;;;;;;;;;6234562;22;19923;-85
2023/09/15 11:12:29;;;;;;;;;;;;;;;;;;6230965;22;19919;-85
2023/09/15 11:15:04;;;;;;;;;;;;;;;;;;6187193;23;19973;-85
2023/09/15 11:17:31;;;;;;;;;;;;;;;;;;6177262;23;19919;-85
2023/09/15 11:20:04;;;;;;;;;;;;;;;;;;6205223;23;19927;-84
2023/09/15 11:22:33;;;;;;;;;;;;;;;;;;6179070;23;19926;-84
2023/09/15 11:25:01;;;;;;;;;;;;;;;;;;6207533;23;19915;-84
2023/09/15 11:27:28;;;;;;;;;;;;;;;;;;6205676;23;20064;-85
2023/09/15 11:29:55;;;;;;;;;;;;;;;;;;6183339;23;19922;-84
2023/09/15 11:32:22;;;;;;;;;;;;;;;;;;6180339;23;20453;-84
2023/09/15 11:34:49;;;;;;;;;;;;;;;;;;6208316;23;19982;-84
2023/09/15 11:37:17;;;;;;;;;;;;;;;;;;6181305;23;19965;-85
2023/09/15 11:39:54;;;;;;;;;;;;;;;;;;6210021;23;19927;-84
2023/09/15 11:42:22;;;;;;;;;;;;;;;;;;6180699;23;19926;-85
2023/09/15 11:44:50;;;;;;;;;;;;;;;;;;6206713;23;19924;-84
2023/09/15 11:47:30;;;;;;;;;;;;;;;;;;;;;
2023/09/15 11:50:13;;;;;;;;;;;;;;;;;;6294681;22;20238;-84
2023/09/15 11:52:40;;;;;;;;;;;;;;;;;;6290082;22;19925;-84
2023/09/15 11:55:07;;;;;;;;;;;;;;;;;;6296220;22;19926;-84
2023/09/15 11:57:34;;;;;;;;;;;;;;;;;;6293444;22;19986;-85
2023/09/15 12:00:02;;;;;;;;;;;;;;;;;;6269149;22;20331;-84
2023/09/15 12:02:29;;;;;;;;;;;;;;;;;;6267631;22;19919;-85
2023/09/15 12:04:56;;;;;;;;;;;;;;;;;;6295324;22;19925;-84
2023/09/15 12:07:23;;;;;;;;;;;;;;;;;;6290634;22;19926;-85
2023/09/15 12:09:50;;;;;;;;;;;;;;;;;;6296406;22;20373;-84
2023/09/15 12:12:17;;;;;;;;;;;;;;;;;;6270475;22;20029;-84
2023/09/15 12:14:47;;;;;;;;;;;;;;;;;;6271807;22;20247;-85
2023/09/15 12:17:15;;;;;;;;;;;;;;;;;;6270066;22;19915;-84
2023/09/15 12:22:16;;;;;;;;;;;;;;;;;;6360348;22;19922;-84
2023/09/15 12:24:43;;;;;;;;;;;;;;;;;;6356666;22;19918;-84
2023/09/15 12:27:11;;;;;;;;;;;;;;;;;;6331918;22;20302;-84
2023/09/15 12:29:38;;;;;;;;;;;;;;;;;;6302830;22;20501;-84
2023/09/15 12:32:05;;;;;;;;;;;;;;;;;;6306751;22;20294;-84
2023/09/15 12:34:42;;;;;;;;;;;;;;;;;;;;;
2023/09/15 12:37:10;;;;;;;;;;;;;;;;;;6327563;22;19994;-84
2023/09/15 12:39:38;;;;;;;;;;;;;;;;;;6300055;22;19922;-84
2023/09/15 12:42:05;;;;;;;;;;;;;;;;;;6303244;22;20539;-84
2023/09/15 12:44:32;;;;;;;;;;;;;;;;;;6302326;22;19914;-85
2023/09/15 12:47:04;;;;;;;;;;;;;;;;;;6303761;22;20218;-84
2023/09/15 12:58:35;;;;;;;;;;;;;;;;;;6309910;22;20613;-85
2023/09/15 13:01:02;;;;;;;;;;;;;;;;;;6332153;22;19930;-85
2023/09/15 13:03:30;;;;;;;;;;;;;;;;;;6302068;22;19925;-85
2023/09/15 13:06:01;;;;;;;;;;;;;;;;;;6328698;22;19940;-84
2023/09/15 13:08:57;;;;;;;;;;;;;;;;;;6330592;22;19933;-85
2023/09/15 13:11:45;;;;;;;;;;;;;;;;;;6309351;22;19918;-84
2023/09/15 13:17:16;;;;;;;;;;;;;;;;;;6327100;22;20247;-83
2023/09/15 13:19:42;;;;;;;;;;;;;;;;;;6268899;22;19954;-83
2023/09/15 13:22:08;;;;;;;;;;;;;;;;;;6244095;22;20264;-84
2023/09/15 13:24:34;;;;;;;;;;;;;;;;;;6296650;22;19923;-83
2023/09/15 13:27:00;;;;;;;;;;;;;;;;;;6297971;22;20262;-83
2023/09/15 13:29:27;;;;;;;;;;;;;;;;;;6268439;22;19918;-83
2023/09/15 13:31:52;;;;;;;;;;;;;;;;;;6267510;22;20361;-84
2023/09/15 13:34:18;;;;;;;;;;;;;;;;;;6241922;22;19919;-84
2023/09/15 13:36:50;;;;;;;;;;;;;;;;;;6273158;22;20310;-84
2023/09/15 13:39:16;;;;;;;;;;;;;;;;;;6303674;22;20001;-84
2023/09/15 13:41:42;;;;;;;;;;;;;;;;;;6246307;22;20254;-84
2023/09/15 13:44:08;;;;;;;;;;;;;;;;;;6243066;22;20373;-84
2023/09/15 13:46:36;;;;;;;;;;;;;;;;;;6242936;22;19918;-84
2023/09/15 13:49:02;;;;;;;;;;;;;;;;;;6269753;22;19918;-84
2023/09/15 13:51:28;;;;;;;;;;;;;;;;;;6265662;22;19976;-84
2023/09/15 13:53:54;;;;;;;;;;;;;;;;;;6240783;22;19919;-84
2023/09/15 13:56:20;;;;;;;;;;;;;;;;;;6264842;22;20320;-84
2023/09/15 13:58:46;;;;;;;;;;;;;;;;;;6267944;22;20234;-84
2023/09/15 14:01:12;;;;;;;;;;;;;;;;;;6269652;22;19919;-84
2023/09/15 14:03:50;;;;;;;;;;;;;;;;;;6267428;22;19919;-84
2023/09/15 14:06:16;;;;;;;;;;;;;;;;;;6265682;22;20118;-84
2023/09/15 14:08:42;;;;;;;;;;;;;;;;;;6269957;22;20337;-84
2023/09/15 14:11:08;;;;;;;;;;;;;;;;;;6244055;22;20010;-84
2023/09/15 14:13:34;;;;;;;;;;;;;;;;;;6238950;22;20305;-84
2023/09/15 14:16:01;;;;;;;;;;;;;;;;;;6239709;22;19923;-84
2023/09/15 14:18:27;;;;;;;;;;;;;;;;;;6262714;22;19938;-84
2023/09/15 14:20:53;;;;;;;;;;;;;;;;;;6264560;22;20278;-84
2023/09/15 14:23:19;;;;;;;;;;;;;;;;;;6260388;22;19919;-80
2023/09/15 14:25:48;;;;;;;;;;;;;;;;;;6257505;22;19915;-84
2023/09/15 14:28:14;;;;;;;;;;;;;;;;;;6260899;22;20115;-87
2023/09/15 14:30:40;;;;;;;;;;;;;;;;;;6232129;22;19994;-89
2023/09/15 14:33:06;;;;;;;;;;;;;;;;;;6233569;22;19950;-87
2023/09/15 14:35:32;;;;;;;;;;;;;;;;;;6254280;22;19923;-86
2023/09/15 14:37:58;;;;;;;;;;;;;;;;;;6236830;22;19938;-86
2023/09/15 14:40:23;;;;;;;;;;;;;;;;;;6233337;22;19931;-87
2023/09/15 14:42:49;;;;;;;;;;;;;;;;;;6234174;22;19934;-89
2023/09/15 14:45:16;;;;;;;;;;;;;;;;;;6239401;22;19926;-89
2023/09/15 14:47:43;;;;;;;;;;;;;;;;;;6236849;22;19941;-87
2023/09/15 14:50:09;;;;;;;;;;;;;;;;;;6239420;22;19988;-86
2023/09/15 14:53:00;;;;;;;;;;;;;;;;;;;;;
2023/09/15 14:55:37;;;;;;;;;;;;;;;;;;6266143;22;20314;-87
2023/09/15 15:10:24;;;;;;;;;;;;;;;;;;6180832;23;20299;-87
2023/09/15 15:13:00;;;;;;;;;;;;;;;;;;6118893;23;20375;-87
2023/09/15 15:15:40;;;;;;;;;;;;;;;;;;6198561;22;19919;-87
2023/09/15 15:18:19;;;;;;;;;;;;;;;;;;;;;
2023/09/15 15:24:32;;;;;;;;;;;;;;;;;;;;;
2023/09/15 15:27:09;;;;;;;;;;;;;;;;;;6262081;22;19925;-87
2023/09/15 15:29:53;;;;;;;;;;;;;;;;;;6232859;22;20323;-86
2023/09/15 15:33:02;;;;;;;;;;;;;;;;;;6235664;22;19968;-87
2023/09/15 15:35:35;;;;;;;;;;;;;;;;;;;;;
2023/09/15 15:38:16;;;;;;;;;;;;;;;;;;6264254;22;20409;-87
2023/09/15 15:43:52;;;;;;;;;;;;;;;;;;6259476;22;19966;-87
2023/09/15 15:46:45;;;;;;;;;;;;;;;;;;6264433;22;19925;-87
2023/09/15 15:49:12;;;;;;;;;;;;;;;;;;6267026;22;19998;-87
2023/09/15 15:51:48;;;;;;;;;;;;;;;;;;6241805;22;20347;-87
2023/09/15 15:54:33;;;;;;;;;;;;;;;;;;;;;
2023/09/15 16:02:57;;;;;;;;;;;;;;;;;;6200703;23;19919;-86
2023/09/15 16:05:26;;;;;;;;;;;;;;;;;;6195536;23;20042;-86
2023/09/15 16:08:07;;;;;;;;;;;;;;;;;;6196604;23;20230;-87
2023/09/15 16:10:37;;;;;;;;;;;;;;;;;;6215448;22;20489;-87
2023/09/15 16:13:22;;;;;;;;;;;;;;;;;;6137286;23;19974;-87
2023/09/15 16:15:54;;;;;;;;;;;;;;;;;;6116477;23;19927;-87
2023/09/15 16:18:23;;;;;;;;;;;;;;;;;;6197897;22;19942;-87
2023/09/15 16:21:00;;;;;;;;;;;;;;;;;;6241288;22;19977;-87
2023/09/15 16:23:38;;;;;;;;;;;;;;;;;;6252190;22;19926;-87
2023/09/15 16:26:35;;;;;;;;;;;;;;;;;;6166694;23;19970;-86
2023/09/15 16:29:06;;;;;;;;;;;;;;;;;;6207475;22;20011;-86
2023/09/15 16:31:33;;;;;;;;;;;;;;;;;;6231567;22;20430;-86
2023/09/15 16:33:59;;;;;;;;;;;;;;;;;;6234053;22;19934;-86
2023/09/15 16:36:25;;;;;;;;;;;;;;;;;;6229742;22;19984;-87
2023/09/15 16:38:52;;;;;;;;;;;;;;;;;;6231946;22;20261;-86
2023/09/15 16:41:18;;;;;;;;;;;;;;;;;;6224880;22;20422;-87
2023/09/15 16:43:47;;;;;;;;;;;;;;;;;;6232505;22;20277;-86
2023/09/15 16:46:19;;;;;;;;;;;;;;;;;;6259572;22;19915;-86
2023/09/15 16:48:45;;;;;;;;;;;;;;;;;;6258102;22;19923;-86
2023/09/15 16:51:15;;;;;;;;;;;;;;;;;;6229580;22;19925;-86
2023/09/15 16:53:48;;;;;;;;;;;;;;;;;;6233797;22;19919;-86
2023/09/15 16:56:17;;;;;;;;;;;;;;;;;;6229933;22;20279;-86
2023/09/15 16:58:45;;;;;;;;;;;;;;;;;;6260613;22;19915;-86
2023/09/15 17:01:14;;;;;;;;;;;;;;;;;;6231497;22;20343;-86
2023/09/15 17:03:40;;;;;;;;;;;;;;;;;;6228387;22;20336;-86
2023/09/15 17:06:06;;;;;;;;;;;;;;;;;;6229878;22;20290;-87
2023/09/15 17:08:33;;;;;;;;;;;;;;;;;;6255080;22;19919;-87
2023/09/15 17:10:59;;;;;;;;;;;;;;;;;;6236436;22;20334;-87
2023/09/15 17:13:25;;;;;;;;;;;;;;;;;;6231728;22;19919;-86
2023/09/15 17:15:51;;;;;;;;;;;;;;;;;;6258221;22;19989;-88
2023/09/15 17:18:17;;;;;;;;;;;;;;;;;;6228645;22;19927;-87
2023/09/15 17:20:45;;;;;;;;;;;;;;;;;;6229646;22;19934;-87
2023/09/15 17:23:11;;;;;;;;;;;;;;;;;;6229292;22;19919;-87
2023/09/15 17:25:37;;;;;;;;;;;;;;;;;;6228588;22;20358;-88
2023/09/15 17:28:03;;;;;;;;;;;;;;;;;;6252991;22;19919;-87
2023/09/15 17:30:29;;;;;;;;;;;;;;;;;;6255200;22;19930;-88
2023/09/15 17:32:56;;;;;;;;;;;;;;;;;;6227469;22;20021;-86
2023/09/15 17:35:22;;;;;;;;;;;;;;;;;;6227483;22;19951;-94
2023/09/15 17:37:47;;;;;;;;;;;;;;;;;;6256117;22;19948;-93
2023/09/15 17:40:16;;;;;;;;;;;;;;;;;;6227196;22;19923;-94
2023/09/15 17:42:44;;;;;;;;;;;;;;;;;;6226215;22;19919;-93
2023/09/15 17:45:11;;;;;;;;;;;;;;;;;;6231424;22;19919;-93
2023/09/15 17:51:05;;;;;;;;;;;;;;;;;;6252742;22;19919;-93
2023/09/15 17:53:32;;;;;;;;;;;;;;;;;;6252320;22;19942;-94
2023/09/15 18:02:20;;;;;;;;;;;;;;;;;;6246449;22;19926;-93
2023/09/15 18:04:46;;;;;;;;;;;;;;;;;;6254232;22;20031;-95
2023/09/15 18:07:12;;;;;;;;;;;;;;;;;;6231185;22;19920;-95
2023/09/15 18:09:38;;;;;;;;;;;;;;;;;;6254393;22;20299;-96
2023/09/15 18:12:04;;;;;;;;;;;;;;;;;;6257965;22;20406;-95
2023/09/15 18:14:30;;;;;;;;;;;;;;;;;;6250348;22;20882;-94
2023/09/15 18:16:56;;;;;;;;;;;;;;;;;;6256313;22;19994;-94
2023/09/15 18:19:26;;;;;;;;;;;;;;;;;;6225783;22;20221;-95
2023/09/15 18:21:54;;;;;;;;;;;;;;;;;;6253981;22;19923;-94
2023/09/15 18:24:20;;;;;;;;;;;;;;;;;;6224588;22;19915;-94
2023/09/15 18:26:46;;;;;;;;;;;;;;;;;;6253198;22;20738;-94
2023/09/15 18:29:12;;;;;;;;;;;;;;;;;;6257824;22;20018;-94
2023/09/15 18:31:38;;;;;;;;;;;;;;;;;;6255678;22;19920;-93
2023/09/15 18:34:04;;;;;;;;;;;;;;;;;;6231635;22;19930;-94
2023/09/15 18:36:30;;;;;;;;;;;;;;;;;;6255376;22;20454;-93
2023/09/15 18:38:56;;;;;;;;;;;;;;;;;;6253420;22;19919;-93
2023/09/15 18:41:24;;;;;;;;;;;;;;;;;;6254434;22;19919;-95
2023/09/15 18:43:50;;;;;;;;;;;;;;;;;;6254079;22;19922;-95
2023/09/15 18:46:16;;;;;;;;;;;;;;;;;;6255232;22;19919;-94
2023/09/15 18:48:42;;;;;;;;;;;;;;;;;;6232327;22;19919;-94
2023/09/15 18:51:08;;;;;;;;;;;;;;;;;;6257683;22;19915;-93
2023/09/15 18:53:35;;;;;;;;;;;;;;;;;;6253858;22;19990;-93
2023/09/15 18:56:01;;;;;;;;;;;;;;;;;;6254828;22;20321;-94
2023/09/15 18:58:26;;;;;;;;;;;;;;;;;;6250714;22;20336;-94
2023/09/15 19:00:52;;;;;;;;;;;;;;;;;;6228433;22;20260;-93
2023/09/15 19:03:18;;;;;;;;;;;;;;;;;;6258324;22;20276;-93
2023/09/15 19:05:44;;;;;;;;;;;;;;;;;;6232811;22;20299;-94
2023/09/15 19:08:10;;;;;;;;;;;;;;;;;;6261210;22;20259;-94
2023/09/15 19:10:36;;;;;;;;;;;;;;;;;;6255960;22;20230;-93
2023/09/15 19:13:02;;;;;;;;;;;;;;;;;;6257643;22;20262;-93
2023/09/15 19:15:30;;;;;;;;;;;;;;;;;;6229369;22;19934;-93
2023/09/15 19:17:56;;;;;;;;;;;;;;;;;;6234126;22;19927;-93
2023/09/15 19:20:22;;;;;;;;;;;;;;;;;;6231059;22;19923;-94
2023/09/15 19:22:48;;;;;;;;;;;;;;;;;;6233564;22;19927;-93
2023/09/15 19:25:14;;;;;;;;;;;;;;;;;;6230409;22;19923;-94